Time;durP1;ratioP1;P1;durP2;ratioP2;P2;SDS_P1;SDS_P2;PMS_P1;PMS_P2;Temp;Humidity;BMP_temperature;BMP_pressure;BME280_temperature;BME280_humidity;BME280_pressure;Samples;Min_cycle;Max_cycle;Signal;HPM_P1;HPM_P2
2021/07/23 00:01:10;;;;;;;9.90;8.07;;;17.70;99.90;;;;;;5070407;28;20485;-72
2021/07/23 00:03:37;;;;;;;9.40;8.10;;;17.60;99.90;;;;;;5070654;28;20486;-72
2021/07/23 00:06:04;;;;;;;10.17;9.07;;;17.60;99.90;;;;;;5070585;28;21008;-72
2021/07/23 00:08:31;;;;;;;10.50;9.40;;;17.60;99.90;;;;;;5070599;28;20461;-72
2021/07/23 00:10:58;;;;;;;9.10;8.17;;;17.60;99.90;;;;;;5069958;28;20469;-72
2021/07/23 00:13:25;;;;;;;11.20;8.77;;;17.60;99.90;;;;;;5070563;28;20463;-73
2021/07/23 00:15:51;;;;;;;9.17;7.83;;;17.50;99.90;;;;;;5070134;28;20493;-73
2021/07/23 00:18:19;;;;;;;10.33;9.13;;;17.50;99.90;;;;;;5070558;28;20458;-73
2021/07/23 00:20:46;;;;;;;10.20;8.73;;;17.50;99.90;;;;;;5069801;28;20467;-73
2021/07/23 00:23:13;;;;;;;9.47;8.50;;;17.50;99.90;;;;;;5070564;28;20482;-73
2021/07/23 00:25:39;;;;;;;10.00;7.90;;;17.50;99.90;;;;;;5070049;28;20486;-72
2021/07/23 00:28:06;;;;;;;10.37;8.83;;;17.40;99.90;;;;;;5070422;28;20473;-72
2021/07/23 00:30:33;;;;;;;9.63;8.60;;;17.40;99.90;;;;;;5069719;28;20836;-72
2021/07/23 00:33:01;;;;;;;9.87;8.10;;;17.40;99.90;;;;;;5070074;28;20470;-72
2021/07/23 00:35:29;;;;;;;9.40;7.90;;;17.30;99.90;;;;;;5070046;28;20479;-73
2021/07/23 00:37:57;;;;;;;10.57;8.27;;;17.20;99.90;;;;;;5069761;28;20463;-72
2021/07/23 00:40:23;;;;;;;10.03;8.63;;;17.20;99.90;;;;;;5069625;28;20463;-73
2021/07/23 00:42:50;;;;;;;10.33;8.40;;;17.20;99.90;;;;;;5069599;28;20513;-73
2021/07/23 00:45:19;;;;;;;9.70;8.70;;;17.10;99.90;;;;;;5069981;28;20489;-73
2021/07/23 00:47:50;;;;;;;11.20;8.77;;;17.10;99.90;;;;;;5069697;28;20564;-73
2021/07/23 00:50:17;;;;;;;9.93;8.20;;;17.10;99.90;;;;;;5069581;28;20485;-73
2021/07/23 00:52:46;;;;;;;9.90;8.53;;;17.10;99.90;;;;;;5069435;28;20465;-73
2021/07/23 00:55:15;;;;;;;10.10;9.10;;;17.10;99.90;;;;;;5069849;28;20869;-73
2021/07/23 00:57:44;;;;;;;9.13;8.20;;;17.10;99.90;;;;;;5069730;28;21231;-73
2021/07/23 01:00:12;;;;;;;10.13;8.03;;;17.10;99.90;;;;;;5069105;28;20466;-73
2021/07/23 01:02:39;;;;;;;9.17;8.20;;;17.10;99.90;;;;;;5069360;28;20494;-73
2021/07/23 01:05:06;;;;;;;10.73;8.43;;;17.00;99.90;;;;;;5069378;28;20497;-73
2021/07/23 01:07:34;;;;;;;10.07;8.13;;;17.00;99.90;;;;;;5069654;28;20459;-73
2021/07/23 01:10:03;;;;;;;10.10;8.30;;;17.00;99.90;;;;;;5068688;28;20458;-73
2021/07/23 01:12:30;;;;;;;9.43;8.53;;;17.00;99.90;;;;;;5069567;28;20826;-73
2021/07/23 01:14:59;;;;;;;10.83;8.47;;;16.90;99.90;;;;;;5069066;28;20481;-73
2021/07/23 01:17:26;;;;;;;8.23;7.10;;;16.90;99.90;;;;;;5069482;28;21030;-72
2021/07/23 01:19:56;;;;;;;9.90;7.87;;;16.80;99.90;;;;;;5068209;28;20473;-72
2021/07/23 01:22:28;;;;;;;8.37;7.50;;;16.80;99.90;;;;;;5067071;28;20482;-73
2021/07/23 01:24:56;;;;;;;10.60;8.23;;;16.80;99.90;;;;;;5068827;28;20474;-73
2021/07/23 01:27:23;;;;;;;11.97;9.07;;;16.80;99.90;;;;;;5069246;28;20465;-73
2021/07/23 01:29:50;;;;;;;9.87;8.20;;;16.80;99.90;;;;;;5068626;28;20494;-72
2021/07/23 01:32:17;;;;;;;8.13;7.37;;;16.70;99.90;;;;;;5069192;28;20454;-73
2021/07/23 01:34:43;;;;;;;9.50;8.17;;;16.70;99.90;;;;;;5069048;28;20478;-72
2021/07/23 01:37:10;;;;;;;8.53;7.17;;;16.70;99.90;;;;;;5069211;28;20473;-73
2021/07/23 01:39:39;;;;;;;8.70;7.70;;;16.70;99.90;;;;;;5068628;28;20458;-72
2021/07/23 01:42:07;;;;;;;10.00;8.27;;;16.60;99.90;;;;;;5068991;28;20553;-72
2021/07/23 01:44:34;;;;;;;9.73;8.13;;;16.60;99.90;;;;;;5068817;28;20486;-72
2021/07/23 01:47:00;;;;;;;9.13;8.10;;;16.60;99.90;;;;;;5069017;28;20462;-73
2021/07/23 01:49:27;;;;;;;9.33;8.10;;;16.60;99.90;;;;;;5068534;28;20462;-72
2021/07/23 01:51:54;;;;;;;9.40;8.20;;;16.60;99.90;;;;;;5068937;28;20459;-73
2021/07/23 01:54:20;;;;;;;9.10;7.53;;;16.50;99.90;;;;;;5069022;28;20478;-72
2021/07/23 01:56:47;;;;;;;9.83;7.80;;;16.50;99.90;;;;;;5069019;28;20462;-73
2021/07/23 01:59:15;;;;;;;9.30;7.77;;;16.50;99.90;;;;;;5068425;28;20462;-72
2021/07/23 02:01:42;;;;;;;9.83;8.53;;;16.50;99.90;;;;;;5068965;28;20462;-72
2021/07/23 02:04:09;;;;;;;10.40;8.10;;;16.50;99.90;;;;;;5068528;28;20494;-73
2021/07/23 02:06:35;;;;;;;8.90;7.93;;;16.40;99.90;;;;;;5068925;28;20465;-72
2021/07/23 02:09:02;;;;;;;9.13;7.70;;;16.40;99.90;;;;;;5068643;28;20463;-72
2021/07/23 02:11:30;;;;;;;9.27;7.80;;;16.40;99.90;;;;;;5068492;28;20462;-73
2021/07/23 02:13:57;;;;;;;8.63;7.70;;;16.30;99.90;;;;;;5068444;28;21024;-73
2021/07/23 02:16:25;;;;;;;9.90;8.07;;;16.40;99.90;;;;;;5069130;28;20871;-73
2021/07/23 02:18:52;;;;;;;9.30;8.10;;;16.30;99.90;;;;;;5068883;28;20849;-73
2021/07/23 02:21:19;;;;;;;8.70;7.50;;;16.30;99.90;;;;;;5068440;28;20469;-73
2021/07/23 02:23:45;;;;;;;10.33;7.90;;;16.30;99.90;;;;;;5068201;28;20487;-73
2021/07/23 02:26:18;;;;;;;9.50;8.43;;;16.30;99.90;;;;;;5068748;28;20477;-73
2021/07/23 02:28:45;;;;;;;9.73;8.63;;;16.20;99.90;;;;;;5068570;28;20467;-73
2021/07/23 02:31:12;;;;;;;10.47;9.03;;;16.20;99.90;;;;;;5069610;28;20470;-73
2021/07/23 02:33:40;;;;;;;9.93;8.63;;;16.20;99.90;;;;;;5072173;28;20466;-73
2021/07/23 02:36:08;;;;;;;13.63;8.23;;;16.10;99.90;;;;;;5072334;28;20482;-72
2021/07/23 02:38:35;;;;;;;10.80;8.60;;;16.10;99.90;;;;;;5072363;28;20465;-73
2021/07/23 02:41:02;;;;;;;9.23;7.87;;;16.10;99.90;;;;;;5069623;28;20466;-73
2021/07/23 02:43:28;;;;;;;8.80;7.80;;;16.10;99.90;;;;;;5072051;28;20493;-73
2021/07/23 02:45:55;;;;;;;12.57;8.33;;;16.00;99.90;;;;;;5072041;28;20482;-73
2021/07/23 02:48:22;;;;;;;10.50;7.37;;;16.00;99.90;;;;;;5072357;28;20458;-73
2021/07/23 02:50:50;;;;;;;8.33;7.40;;;16.00;99.90;;;;;;5071341;28;20872;-73
2021/07/23 02:53:17;;;;;;;9.73;8.00;;;16.00;99.90;;;;;;5072119;28;20462;-72
2021/07/23 02:55:44;;;;;;;8.87;7.53;;;15.90;99.90;;;;;;5071761;28;20485;-72
2021/07/23 02:58:11;;;;;;;10.60;7.90;;;16.00;99.90;;;;;;5072066;28;20465;-73
2021/07/23 03:00:38;;;;;;;11.17;8.13;;;15.90;99.90;;;;;;5071464;28;20462;-72
2021/07/23 03:03:05;;;;;;;10.43;8.60;;;15.90;99.90;;;;;;5071727;28;20485;-72
2021/07/23 03:05:32;;;;;;;9.10;8.20;;;15.90;99.90;;;;;;5071705;28;20493;-73
2021/07/23 03:08:00;;;;;;;9.47;8.40;;;15.80;99.90;;;;;;5071717;28;20500;-73
2021/07/23 03:10:26;;;;;;;9.13;8.10;;;15.80;99.90;;;;;;5071342;28;20464;-73
2021/07/23 03:12:53;;;;;;;9.37;8.40;;;15.70;99.90;;;;;;5071336;28;20832;-73
2021/07/23 03:15:20;;;;;;;8.70;7.80;;;15.70;99.90;;;;;;5071780;28;21050;-72
2021/07/23 03:17:47;;;;;;;10.80;8.30;;;15.70;99.90;;;;;;5064148;28;20832;-72
2021/07/23 03:20:14;;;;;;;9.53;7.57;;;15.60;99.90;;;;;;5071177;28;20846;-73
2021/07/23 03:22:41;;;;;;;9.53;7.90;;;15.60;99.90;;;;;;5071290;28;20466;-73
2021/07/23 03:25:10;;;;;;;9.90;8.50;;;15.60;99.90;;;;;;5071329;28;20493;-73
2021/07/23 03:27:37;;;;;;;10.83;8.13;;;15.60;99.90;;;;;;5071573;28;20466;-72
2021/07/23 03:30:05;;;;;;;9.60;7.50;;;15.50;99.90;;;;;;5070808;28;20473;-72
2021/07/23 03:32:32;;;;;;;10.67;7.97;;;15.50;99.90;;;;;;5070983;28;20458;-72
2021/07/23 03:34:59;;;;;;;9.10;8.23;;;15.50;99.90;;;;;;5071621;28;20478;-71
2021/07/23 03:37:25;;;;;;;10.27;8.87;;;15.50;99.90;;;;;;5069526;28;20541;-71
2021/07/23 03:39:52;;;;;;;9.73;8.33;;;15.50;99.90;;;;;;5068360;28;20646;-71
2021/07/23 03:42:20;;;;;;;12.23;8.17;;;15.50;99.90;;;;;;5070906;28;20458;-71
2021/07/23 03:44:47;;;;;;;11.27;8.27;;;15.50;99.90;;;;;;5070787;28;21039;-71
2021/07/23 03:47:15;;;;;;;10.53;8.87;;;15.50;99.90;;;;;;5071525;28;20885;-71
2021/07/23 03:49:42;;;;;;;10.07;8.93;;;15.50;99.90;;;;;;5070461;28;20458;-72
2021/07/23 03:52:09;;;;;;;10.60;9.40;;;15.40;99.90;;;;;;5070287;28;20829;-72
2021/07/23 03:54:36;;;;;;;10.33;8.37;;;15.40;99.90;;;;;;5070869;28;20587;-71
2021/07/23 03:57:04;;;;;;;10.87;8.60;;;15.40;99.90;;;;;;5070826;28;20458;-71
2021/07/23 03:59:32;;;;;;;12.83;8.13;;;15.40;99.90;;;;;;5070700;28;20985;-72
2021/07/23 04:01:59;;;;;;;11.10;9.00;;;15.40;99.90;;;;;;5070372;28;20477;-72
2021/07/23 04:04:26;;;;;;;11.37;8.90;;;15.30;99.90;;;;;;5070641;28;20490;-72
2021/07/23 04:06:56;;;;;;;11.63;9.00;;;15.30;99.90;;;;;;5070231;28;20462;-71
2021/07/23 04:09:22;;;;;;;9.50;8.50;;;15.30;99.90;;;;;;5068714;28;20891;-72
2021/07/23 04:11:50;;;;;;;9.63;8.30;;;15.30;99.90;;;;;;5065872;28;20463;-72
2021/07/23 04:14:17;;;;;;;11.23;8.30;;;15.30;99.90;;;;;;5065215;28;20470;-72
2021/07/23 04:16:45;;;;;;;10.37;8.40;;;15.30;99.90;;;;;;5070022;28;21044;-71
2021/07/23 04:19:12;;;;;;;11.97;9.27;;;15.30;99.90;;;;;;5069282;28;20454;-71
2021/07/23 04:21:38;;;;;;;10.57;8.77;;;15.30;99.90;;;;;;5070688;28;20466;-71
2021/07/23 04:24:06;;;;;;;16.60;9.03;;;15.30;99.90;;;;;;5069761;28;20855;-72
2021/07/23 04:26:33;;;;;;;10.03;8.33;;;15.30;99.90;;;;;;5067854;28;20471;-72
2021/07/23 04:29:00;;;;;;;10.40;8.20;;;15.20;99.90;;;;;;5068806;28;20490;-71
2021/07/23 04:31:27;;;;;;;9.60;8.60;;;15.20;99.90;;;;;;5063267;28;20491;-71
2021/07/23 04:33:57;;;;;;;10.27;8.33;;;15.20;99.90;;;;;;5060289;28;20455;-71
2021/07/23 04:36:23;;;;;;;14.07;9.17;;;15.20;99.90;;;;;;5059486;28;20531;-72
2021/07/23 04:38:50;;;;;;;13.50;8.83;;;15.20;99.90;;;;;;5060955;28;20455;-71
2021/07/23 04:41:17;;;;;;;10.73;9.13;;;15.20;99.90;;;;;;5067704;28;20949;-71
2021/07/23 04:43:43;;;;;;;10.57;8.17;;;15.20;99.90;;;;;;5068140;28;20849;-71
2021/07/23 04:46:10;;;;;;;10.83;9.07;;;15.30;99.90;;;;;;5069386;28;20469;-72
2021/07/23 04:48:37;;;;;;;11.10;8.70;;;15.30;99.90;;;;;;5069088;28;20502;-72
2021/07/23 04:51:06;;;;;;;10.63;8.57;;;15.30;99.90;;;;;;5069101;28;20465;-71
2021/07/23 04:53:32;;;;;;;12.80;9.77;;;15.30;99.90;;;;;;5068979;28;20451;-71
2021/07/23 04:56:01;;;;;;;13.30;8.47;;;15.30;99.90;;;;;;5069374;28;20487;-71
2021/07/23 04:58:28;;;;;;;9.93;8.90;;;15.40;99.90;;;;;;5069784;28;20473;-71
2021/07/23 05:00:54;;;;;;;10.00;8.10;;;15.40;99.90;;;;;;5068928;28;20466;-71
2021/07/23 05:03:22;;;;;;;12.10;8.93;;;15.40;99.90;;;;;;5069012;28;20624;-71
2021/07/23 05:05:49;;;;;;;10.87;8.90;;;15.50;99.90;;;;;;5104898;22;20857;-69
2021/07/23 05:08:17;;;;;;;9.47;8.40;;;15.50;99.90;;;;;;5028531;28;20483;-68
2021/07/23 05:10:44;;;;;;;11.03;9.63;;;15.60;99.90;;;;;;5028252;28;20986;-69
2021/07/23 05:13:11;;;;;;;14.80;9.90;;;15.60;99.90;;;;;;5028554;28;20723;-68
2021/07/23 05:15:39;;;;;;;11.90;9.00;;;15.70;99.90;;;;;;5028392;28;20487;-68
2021/07/23 05:18:06;;;;;;;9.90;8.90;;;15.70;99.90;;;;;;5028142;28;20464;-67
2021/07/23 05:20:33;;;;;;;11.10;9.00;;;15.70;99.90;;;;;;5027890;28;20464;-69
2021/07/23 05:23:01;;;;;;;9.80;8.30;;;15.80;99.90;;;;;;5029141;28;20471;-68
2021/07/23 05:25:29;;;;;;;9.77;8.57;;;15.80;99.90;;;;;;5028548;28;20991;-68
2021/07/23 05:27:56;;;;;;;10.50;9.03;;;15.90;99.90;;;;;;5029110;28;20836;-68
2021/07/23 05:30:23;;;;;;;13.37;9.53;;;15.90;99.90;;;;;;5028276;28;20829;-68
2021/07/23 05:32:50;;;;;;;9.93;8.77;;;15.90;99.90;;;;;;5018611;28;20465;-68
2021/07/23 05:35:16;;;;;;;9.57;8.57;;;15.90;99.90;;;;;;5027756;28;20476;-67
2021/07/23 05:37:45;;;;;;;11.40;9.20;;;16.00;99.90;;;;;;5028856;28;20475;-68
2021/07/23 05:40:13;;;;;;;10.70;9.47;;;16.10;99.90;;;;;;5028159;28;20456;-68
2021/07/23 05:42:41;;;;;;;9.70;8.70;;;16.20;99.90;;;;;;5028945;28;20460;-68
2021/07/23 05:45:08;;;;;;;10.93;9.30;;;16.30;99.90;;;;;;5028277;28;20837;-69
2021/07/23 05:47:35;;;;;;;11.03;8.33;;;16.30;99.90;;;;;;5028966;28;20464;-68
2021/07/23 05:50:01;;;;;;;14.07;10.13;;;16.40;99.90;;;;;;5027774;28;20472;-69
2021/07/23 05:52:28;;;;;;;11.90;9.30;;;16.50;99.90;;;;;;5017607;28;20464;-71
2021/07/23 05:54:55;;;;;;;12.60;9.57;;;16.60;99.90;;;;;;5022959;28;20476;-67
2021/07/23 05:57:22;;;;;;;16.27;10.80;;;16.80;99.90;;;;;;5028010;28;20472;-70
2021/07/23 05:59:50;;;;;;;11.10;10.00;;;16.90;99.90;;;;;;5027949;28;20467;-70
2021/07/23 06:02:16;;;;;;;13.80;10.10;;;16.90;99.90;;;;;;5027781;28;20464;-69
2021/07/23 06:04:43;;;;;;;13.03;10.60;;;17.00;99.90;;;;;;5028587;28;20491;-70
2021/07/23 06:07:09;;;;;;;15.33;11.07;;;17.20;99.90;;;;;;5031537;28;20471;-70
2021/07/23 06:09:36;;;;;;;13.90;11.20;;;17.30;99.90;;;;;;5031409;28;20471;-69
2021/07/23 06:12:03;;;;;;;12.00;9.27;;;17.30;99.90;;;;;;5032422;28;20464;-70
2021/07/23 06:14:30;;;;;;;11.73;10.10;;;17.40;99.90;;;;;;5031731;28;20931;-70
2021/07/23 06:16:59;;;;;;;10.97;9.73;;;17.40;99.90;;;;;;5032828;28;20464;-69
2021/07/23 06:19:26;;;;;;;13.27;11.60;;;17.50;99.90;;;;;;5032129;28;20934;-70
2021/07/23 06:21:52;;;;;;;13.60;10.23;;;17.50;99.90;;;;;;5032439;28;20464;-70
2021/07/23 06:24:19;;;;;;;11.33;8.83;;;17.60;99.90;;;;;;5032133;28;20492;-70
2021/07/23 06:26:46;;;;;;;10.60;9.10;;;17.70;99.90;;;;;;5031914;28;20460;-69
2021/07/23 06:29:12;;;;;;;12.67;10.10;;;17.80;99.90;;;;;;5031846;28;20467;-70
2021/07/23 06:31:39;;;;;;;11.00;9.90;;;17.90;99.90;;;;;;5031701;28;20467;-70
2021/07/23 06:34:07;;;;;;;11.37;10.07;;;18.00;99.90;;;;;;5032190;28;20472;-70
2021/07/23 06:36:35;;;;;;;15.97;10.00;;;18.00;99.90;;;;;;5031642;28;20850;-70
2021/07/23 06:39:02;;;;;;;14.00;10.43;;;18.10;99.90;;;;;;5032092;28;20460;-69
2021/07/23 06:41:28;;;;;;;14.03;10.90;;;18.10;99.90;;;;;;5031717;28;20460;-70
2021/07/23 06:43:55;;;;;;;20.10;11.20;;;18.20;99.90;;;;;;5031320;28;20504;-70
2021/07/23 06:46:22;;;;;;;12.50;10.67;;;18.20;99.90;;;;;;5031744;28;20468;-70
2021/07/23 06:48:49;;;;;;;10.60;9.50;;;18.30;99.90;;;;;;5031552;28;20470;-70
2021/07/23 06:51:17;;;;;;;11.60;10.40;;;18.30;99.90;;;;;;5028050;28;20471;-70
2021/07/23 06:53:44;;;;;;;13.80;12.10;;;18.40;99.90;;;;;;5021956;28;20471;-70
2021/07/23 06:56:10;;;;;;;15.10;11.57;;;18.40;99.90;;;;;;5031635;28;20464;-69
2021/07/23 06:58:37;;;;;;;12.17;10.53;;;18.50;99.90;;;;;;5031445;28;20990;-70
2021/07/23 07:01:05;;;;;;;15.17;10.83;;;18.50;99.90;;;;;;5039311;28;20989;-70
2021/07/23 07:03:31;;;;;;;13.60;10.90;;;18.60;99.90;;;;;;5051454;28;20978;-70
2021/07/23 07:05:58;;;;;;;13.10;10.53;;;18.60;99.90;;;;;;5051087;28;20556;-70
2021/07/23 07:08:26;;;;;;;18.50;12.40;;;18.70;99.90;;;;;;5051253;28;20459;-69
2021/07/23 07:10:53;;;;;;;12.23;10.93;;;18.80;99.90;;;;;;5050907;28;20820;-70
2021/07/23 07:13:20;;;;;;;12.97;10.80;;;18.90;99.90;;;;;;5051009;28;20830;-69
2021/07/23 07:15:46;;;;;;;14.77;10.90;;;18.90;99.90;;;;;;5050880;28;20843;-70
2021/07/23 07:18:13;;;;;;;14.37;10.47;;;18.90;99.90;;;;;;5050500;28;20851;-70
2021/07/23 07:20:40;;;;;;;12.43;10.80;;;19.00;99.90;;;;;;5028917;28;20468;-70
2021/07/23 07:23:06;;;;;;;12.33;11.03;;;19.00;99.90;;;;;;5030726;28;20460;-70
2021/07/23 07:25:34;;;;;;;17.27;10.90;;;19.10;99.90;;;;;;5030896;28;20848;-70
2021/07/23 07:28:02;;;;;;;12.03;9.90;;;19.10;99.90;;;;;;5031379;28;20464;-71
2021/07/23 07:30:29;;;;;;;13.07;11.10;;;19.20;99.90;;;;;;5030257;28;20464;-70
2021/07/23 07:32:56;;;;;;;11.27;10.23;;;19.30;99.90;;;;;;5031083;28;20547;-70
2021/07/23 07:35:23;;;;;;;15.67;10.63;;;19.30;99.90;;;;;;5030398;28;20484;-70
2021/07/23 07:37:50;;;;;;;11.43;9.00;;;19.40;99.90;;;;;;5031114;28;20955;-70
2021/07/23 07:40:17;;;;;;;12.60;10.23;;;19.50;99.90;;;;;;5030225;28;20496;-70
2021/07/23 07:42:45;;;;;;;14.37;10.07;;;19.60;99.90;;;;;;5030711;28;20464;-70
2021/07/23 07:45:12;;;;;;;12.20;10.90;;;19.70;99.90;;;;;;5030686;28;21003;-70
2021/07/23 07:47:39;;;;;;;11.33;10.00;;;19.80;99.90;;;;;;5030273;28;20452;-69
2021/07/23 07:50:07;;;;;;;12.53;11.23;;;19.90;99.90;;;;;;5030186;28;20467;-70
2021/07/23 07:52:34;;;;;;;13.00;10.10;;;19.90;99.90;;;;;;5030096;28;20464;-70
2021/07/23 07:55:00;;;;;;;14.80;10.37;;;20.00;99.90;;;;;;5030574;28;20484;-70
2021/07/23 07:57:27;;;;;;;14.70;10.90;;;20.00;99.90;;;;;;5030209;28;20464;-70
2021/07/23 07:59:56;;;;;;;13.50;10.13;;;20.10;99.90;;;;;;5030579;28;20473;-68
2021/07/23 08:02:23;;;;;;;12.03;10.30;;;20.20;99.90;;;;;;5030284;28;20464;-69
2021/07/23 08:04:50;;;;;;;12.33;9.67;;;20.30;99.90;;;;;;5043562;28;20491;-69
2021/07/23 08:07:20;;;;;;;10.90;9.80;;;20.40;99.90;;;;;;5050568;28;20461;-69
2021/07/23 08:09:51;;;;;;;13.30;10.00;;;20.50;99.90;;;;;;5049837;28;20846;-70
2021/07/23 08:12:18;;;;;;;12.63;9.70;;;20.50;99.90;;;;;;5050682;28;20459;-69
2021/07/23 08:14:45;;;;;;;13.43;10.47;;;20.60;99.90;;;;;;5049932;28;20993;-69
2021/07/23 08:17:13;;;;;;;13.23;10.70;;;20.70;99.90;;;;;;5050108;28;20463;-69
2021/07/23 08:19:40;;;;;;;12.40;10.10;;;20.80;99.90;;;;;;5049613;28;20506;-70
2021/07/23 08:22:07;;;;;;;11.40;9.70;;;20.90;99.90;;;;;;5049764;28;20463;-69
2021/07/23 08:24:33;;;;;;;13.33;10.03;;;21.10;99.90;;;;;;5049550;28;20494;-69
2021/07/23 08:27:00;;;;;;;11.27;10.00;;;21.10;99.90;;;;;;5050047;28;20835;-70
2021/07/23 08:29:27;;;;;;;15.40;10.70;;;21.30;99.90;;;;;;5049327;28;20460;-69
2021/07/23 08:31:54;;;;;;;11.17;10.07;;;21.30;99.90;;;;;;5049913;28;20491;-68
2021/07/23 08:34:22;;;;;;;9.60;8.60;;;21.40;99.90;;;;;;5049190;28;21032;-70
2021/07/23 08:36:49;;;;;;;12.43;9.23;;;21.50;99.90;;;;;;5050021;28;20467;-69
2021/07/23 08:39:15;;;;;;;11.70;10.60;;;21.60;99.90;;;;;;5048815;28;20923;-69
2021/07/23 08:41:42;;;;;;;12.03;10.07;;;21.60;99.90;;;;;;5049914;28;20460;-69
2021/07/23 08:44:09;;;;;;;12.60;9.43;;;21.70;99.90;;;;;;5049203;28;20475;-70
2021/07/23 08:46:35;;;;;;;14.63;10.20;;;21.70;99.90;;;;;;5049486;28;20459;-69
2021/07/23 08:49:02;;;;;;;10.10;8.93;;;21.80;99.90;;;;;;5044986;28;20466;-69
2021/07/23 08:51:30;;;;;;;10.13;9.13;;;21.90;99.90;;;;;;5022979;28;20457;-68
2021/07/23 08:53:57;;;;;;;12.20;9.33;;;21.90;99.90;;;;;;5029528;28;20952;-68
2021/07/23 08:56:23;;;;;;;10.30;8.80;;;22.00;99.90;;;;;;5029076;28;20456;-68
2021/07/23 08:58:50;;;;;;;10.50;9.40;;;22.10;99.90;;;;;;5029707;28;20461;-68
2021/07/23 09:01:17;;;;;;;11.20;9.27;;;22.20;99.90;;;;;;5028347;28;20468;-68
2021/07/23 09:03:43;;;;;;;11.67;10.07;;;22.30;99.90;;;;;;5029496;28;20472;-68
2021/07/23 09:06:17;;;;;;;10.63;9.53;;;22.40;99.90;;;;;;5029499;28;20484;-68
2021/07/23 09:08:50;;;;;;;10.80;8.57;;;22.50;99.90;;;;;;5029288;28;20951;-69
2021/07/23 09:11:26;;;;;;;9.47;8.57;;;22.60;99.90;;;;;;5028823;28;21056;-68
2021/07/23 09:13:52;;;;;;;10.23;9.00;;;22.60;99.90;;;;;;5028909;28;21025;-69
2021/07/23 09:16:25;;;;;;;9.63;8.67;;;22.70;99.90;;;;;;5028934;28;20453;-69
2021/07/23 09:19:06;;;;;;;10.17;9.07;;;22.80;99.90;;;;;;5028970;28;20493;-69
2021/07/23 09:21:36;;;;;;;11.20;10.00;;;22.90;99.90;;;;;;5026255;28;20496;-69
2021/07/23 09:24:05;;;;;;;11.00;9.30;;;22.90;99.90;;;;;;5028568;28;20464;-69
2021/07/23 09:26:41;;;;;;;9.90;8.90;;;22.90;99.90;;;;;;5028839;28;20488;-69
2021/07/23 09:29:08;;;;;;;10.93;9.47;;;22.90;99.90;;;;;;5029042;28;20469;-69
2021/07/23 09:31:35;;;;;;;10.00;9.00;;;22.90;99.90;;;;;;5028643;28;21307;-69
2021/07/23 09:34:03;;;;;;;10.80;9.37;;;23.00;99.90;;;;;;5029007;28;20464;-69
2021/07/23 09:36:30;;;;;;;11.10;9.90;;;23.10;99.90;;;;;;5028577;28;20467;-67
2021/07/23 09:39:02;;;;;;;10.80;9.67;;;23.10;99.90;;;;;;5029069;28;20862;-68
2021/07/23 09:41:30;;;;;;;10.13;9.13;;;23.20;99.90;;;;;;5028085;28;20472;-69
2021/07/23 09:44:01;;;;;;;11.43;9.30;;;23.30;99.90;;;;;;5028932;28;20471;-68
2021/07/23 09:46:34;;;;;;;11.03;9.30;;;23.40;99.90;;;;;;5028325;28;20582;-68
2021/07/23 09:49:08;;;;;;;12.40;9.17;;;23.40;99.90;;;;;;5029096;28;20518;-68
2021/07/23 09:51:37;;;;;;;11.00;8.77;;;23.40;99.90;;;;;;5028641;28;20467;-68
2021/07/23 09:54:04;;;;;;;9.57;8.67;;;23.40;99.90;;;;;;5028661;28;20486;-69
2021/07/23 09:56:32;;;;;;;10.67;8.30;;;23.40;99.90;;;;;;5027903;28;20532;-67
2021/07/23 09:59:02;;;;;;;9.87;8.83;;;23.50;99.90;;;;;;5028015;28;20471;-68
2021/07/23 10:01:39;;;;;;;9.13;8.00;;;23.60;99.90;;;;;;5028191;28;20465;-69
2021/07/23 10:04:19;;;;;;;9.87;8.30;;;23.70;99.90;;;;;;5028337;28;20994;-69
2021/07/23 10:06:52;;;;;;;12.80;8.80;;;23.80;99.90;;;;;;5028663;28;20570;-69
2021/07/23 10:09:23;;;;;;;10.70;8.57;;;23.80;99.90;;;;;;5027869;28;20458;-68
2021/07/23 10:11:51;;;;;;;8.87;8.00;;;23.90;99.90;;;;;;5028837;28;20547;-69
2021/07/23 10:14:22;;;;;;;9.87;8.97;;;23.90;99.90;;;;;;5028446;28;20490;-68
2021/07/23 10:16:49;;;;;;;9.33;8.30;;;24.00;99.90;;;;;;5029746;28;20982;-70
2021/07/23 10:19:16;;;;;;;9.43;8.43;;;24.10;99.90;;;;;;5028297;28;20959;-70
2021/07/23 10:21:43;;;;;;;9.80;8.80;;;24.10;99.90;;;;;;5025421;28;20467;-70
2021/07/23 10:24:10;;;;;;;9.43;8.37;;;24.20;99.90;;;;;;5027875;28;20864;-70
2021/07/23 10:26:38;;;;;;;10.10;9.10;;;24.30;99.90;;;;;;5027775;28;20485;-70
2021/07/23 10:29:08;;;;;;;9.20;8.30;;;24.40;99.90;;;;;;5028444;28;20491;-70
2021/07/23 10:31:42;;;;;;;11.50;8.37;;;24.40;99.90;;;;;;5028054;28;20508;-70
2021/07/23 10:34:10;;;;;;;8.80;7.90;;;24.40;99.90;;;;;;5028333;28;20994;-69
2021/07/23 10:36:38;;;;;;;9.80;8.80;;;24.50;99.90;;;;;;5028305;28;20546;-70
2021/07/23 10:39:13;;;;;;;9.87;8.90;;;24.50;99.90;;;;;;5028518;28;20467;-70
2021/07/23 10:41:42;;;;;;;8.63;7.83;;;24.60;99.90;;;;;;5027725;28;20464;-70
2021/07/23 10:44:12;;;;;;;9.57;8.40;;;24.60;99.90;;;;;;5028063;28;20999;-70
2021/07/23 10:46:56;;;;;;;9.50;8.20;;;24.70;99.90;;;;;;5028060;28;20538;-70
2021/07/23 10:49:46;;;;;;;9.17;8.20;;;24.70;99.90;;;;;;5027345;28;20472;-69
2021/07/23 10:52:27;;;;;;;12.17;8.60;;;24.70;99.90;;;;;;5029614;28;20979;-70
2021/07/23 10:55:19;;;;;;;10.13;8.70;;;24.70;99.90;;;;;;5031584;28;21077;-70
2021/07/23 10:58:13;;;;;;;10.83;9.00;;;24.70;99.90;;;;;;5032346;28;20460;-70
2021/07/23 11:00:51;;;;;;;10.13;8.63;;;24.70;99.90;;;;;;5029220;28;20459;-70
2021/07/23 11:03:46;;;;;;;10.00;8.40;;;24.60;99.90;;;;;;5030520;28;20467;-71
2021/07/23 11:06:20;;;;;;;11.67;8.50;;;24.70;99.90;;;;;;5044730;22;21008;-72
2021/07/23 11:08:48;;;;;;;10.10;9.10;;;24.80;99.90;;;;;;5030943;28;20883;-72
2021/07/23 11:11:16;;;;;;;9.83;8.80;;;24.80;99.90;;;;;;5030090;28;20460;-72
2021/07/23 11:13:43;;;;;;;9.87;8.73;;;24.70;99.90;;;;;;5031321;28;20547;-71
2021/07/23 11:16:13;;;;;;;9.67;8.10;;;24.60;99.90;;;;;;5012290;28;20464;-72
2021/07/23 11:18:54;;;;;;;9.13;8.10;;;24.60;99.90;;;;;;5011255;28;20473;-73
2021/07/23 11:21:22;;;;;;;15.23;8.87;;;24.60;99.90;;;;;;5010582;28;20464;-72
2021/07/23 11:23:49;;;;;;;13.33;9.17;;;24.70;99.90;;;;;;5010809;28;20461;-72
2021/07/23 11:26:23;;;;;;;9.67;8.67;;;24.80;99.90;;;;;;4995901;28;20487;-72
2021/07/23 11:28:52;;;;;;;10.20;8.77;;;25.00;99.90;;;;;;5008909;28;20518;-73
2021/07/23 11:31:33;;;;;;;9.80;8.77;;;25.10;99.90;;;;;;5009633;28;20457;-72
2021/07/23 11:34:00;;;;;;;12.90;9.33;;;25.30;99.90;;;;;;5010766;28;20473;-72
2021/07/23 11:36:45;;;;;;;9.80;8.43;;;25.40;99.90;;;;;;5011052;28;20453;-72
2021/07/23 11:39:11;;;;;;;9.50;8.50;;;25.50;99.90;;;;;;5010800;28;20449;-72
2021/07/23 11:41:57;;;;;;;8.47;7.67;;;25.50;99.90;;;;;;5011550;28;20465;-72
2021/07/23 11:44:23;;;;;;;10.03;9.00;;;25.40;99.90;;;;;;5010361;28;20988;-72
2021/07/23 11:46:51;;;;;;;10.80;9.47;;;25.50;99.90;;;;;;5011223;28;20494;-71
2021/07/23 11:49:18;;;;;;;10.30;8.33;;;25.50;99.90;;;;;;5010835;28;20469;-72
2021/07/23 11:51:47;;;;;;;12.07;10.87;;;25.70;99.90;;;;;;5011045;28;20471;-72
2021/07/23 11:54:18;;;;;;;9.80;8.80;;;25.80;99.90;;;;;;5011125;28;20492;-72
2021/07/23 11:56:45;;;;;;;9.63;8.73;;;25.80;99.90;;;;;;5011250;28;20468;-72
2021/07/23 11:59:12;;;;;;;9.60;8.70;;;25.80;99.90;;;;;;5010591;28;20464;-71
2021/07/23 12:01:40;;;;;;;10.07;8.90;;;25.80;99.90;;;;;;5010966;28;20465;-73
2021/07/23 12:04:09;;;;;;;10.90;8.60;;;25.80;99.90;;;;;;5012115;28;20504;-72
2021/07/23 12:06:38;;;;;;;10.70;9.60;;;25.90;99.90;;;;;;5011419;28;20501;-74
2021/07/23 12:09:09;;;;;;;9.90;8.80;;;26.00;99.90;;;;;;5011344;28;20603;-73
2021/07/23 12:11:35;;;;;;;13.40;9.67;;;26.00;99.90;;;;;;5011690;28;20474;-73
2021/07/23 12:14:09;;;;;;;9.20;8.30;;;26.00;99.90;;;;;;5011032;28;20457;-73
2021/07/23 12:16:37;;;;;;;8.97;8.10;;;26.00;99.90;;;;;;5011185;28;20480;-73
2021/07/23 12:19:08;;;;;;;8.47;7.67;;;26.10;99.90;;;;;;5010468;28;20484;-73
2021/07/23 12:21:39;;;;;;;9.77;8.30;;;26.10;99.90;;;;;;5011063;28;20457;-73
2021/07/23 12:24:07;;;;;;;9.63;8.60;;;26.10;99.90;;;;;;5011161;28;20477;-73
2021/07/23 12:26:35;;;;;;;9.87;8.87;;;26.20;99.90;;;;;;5010450;28;20521;-73
2021/07/23 12:29:03;;;;;;;10.10;9.20;;;26.20;99.90;;;;;;5008609;28;20472;-73
2021/07/23 12:31:30;;;;;;;8.47;7.70;;;26.30;99.90;;;;;;4990308;28;20470;-73
2021/07/23 12:34:04;;;;;;;9.77;8.87;;;26.40;99.90;;;;;;4990945;28;20462;-73
2021/07/23 12:36:44;;;;;;;9.03;8.20;;;26.40;99.90;;;;;;4990725;28;20485;-73
2021/07/23 12:39:11;;;;;;;8.67;7.87;;;26.50;99.90;;;;;;4990560;28;21052;-73
2021/07/23 12:41:40;;;;;;;9.80;8.37;;;26.50;99.90;;;;;;4990665;28;20474;-73
2021/07/23 12:44:08;;;;;;;9.07;8.27;;;26.60;99.90;;;;;;4990994;28;20600;-73